createdAt,value
2022-11-27T00:00:34.258Z,5.19
2022-11-27T00:01:34.206Z,5.15
2022-11-27T00:03:27.299Z,5.05
2022-11-27T00:04:27.045Z,5.07
2022-11-27T00:06:43.519Z,4.97
2022-11-27T00:07:43.553Z,4.94
2022-11-27T00:09:47.445Z,4.84
2022-11-27T00:10:47.402Z,4.83
2022-11-27T00:12:51.398Z,4.74
2022-11-27T00:13:51.335Z,4.68
2022-11-27T00:15:55.296Z,4.61
2022-11-27T00:16:55.248Z,4.56
2022-11-27T00:18:59.212Z,4.38
2022-11-27T00:19:59.157Z,4.42
2022-11-27T00:22:03.121Z,4.28
2022-11-27T00:23:03.085Z,4.21
2022-11-27T00:25:07.044Z,4.12
2022-11-27T00:26:06.999Z,4.07
2022-11-27T00:28:10.962Z,3.88
2022-11-27T00:29:10.929Z,3.88
2022-11-27T00:31:14.927Z,3.74
2022-11-27T00:32:14.850Z,3.66
2022-11-27T00:34:18.822Z,3.61
2022-11-27T00:35:18.774Z,3.61
2022-11-27T00:37:22.756Z,3.43
2022-11-27T00:38:22.705Z,3.36
2022-11-27T00:40:26.654Z,3.26
2022-11-27T00:41:26.628Z,3.24
2022-11-27T00:43:19.523Z,3.13
2022-11-27T00:44:19.481Z,3.11
2022-11-27T00:46:28.075Z,3.00
2022-11-27T00:47:23.394Z,2.87
2022-11-27T00:49:27.357Z,2.87
2022-11-27T00:50:27.313Z,2.73
2022-11-27T00:52:31.281Z,2.64
2022-11-27T00:53:31.752Z,2.59
2022-11-27T00:55:35.176Z,2.37
2022-11-27T00:56:35.158Z,2.33
2022-11-27T00:58:39.124Z,2.41
2022-11-27T00:59:39.071Z,2.41
2022-11-27T01:01:43.103Z,2.32
2022-11-27T01:02:43.040Z,2.28
2022-11-27T01:03:42.963Z,2.25
2022-11-27T01:04:42.942Z,2.21
2022-11-27T01:05:42.920Z,2.15
2022-11-27T01:06:42.901Z,2.14
2022-11-27T01:07:42.917Z,2.03
2022-11-27T01:08:42.867Z,2.05
2022-11-27T01:09:42.833Z,2.12
2022-11-27T01:10:42.817Z,1.98
2022-11-27T01:11:42.795Z,1.97
2022-11-27T01:12:42.772Z,1.86
2022-11-27T01:13:42.751Z,1.85
2022-11-27T01:14:42.736Z,1.93
2022-11-27T01:15:42.745Z,1.92
2022-11-27T01:16:43.405Z,1.85
2022-11-27T01:17:42.665Z,1.81
2022-11-27T01:18:42.648Z,1.79
2022-11-27T01:19:42.624Z,1.78
2022-11-27T01:20:42.605Z,1.70
2022-11-27T01:21:42.580Z,1.66
2022-11-27T01:22:42.559Z,1.67
2022-11-27T01:23:42.542Z,1.58
2022-11-27T01:24:42.710Z,1.57
2022-11-27T01:25:42.494Z,1.52
2022-11-27T01:26:42.470Z,1.52
2022-11-27T01:27:42.450Z,1.50
2022-11-27T01:28:42.430Z,1.31
2022-11-27T01:29:42.410Z,1.28
2022-11-27T01:30:42.387Z,1.31
2022-11-27T01:31:42.394Z,1.28
2022-11-27T01:32:42.342Z,1.31
2022-11-27T01:33:42.323Z,1.28
2022-11-27T01:34:42.577Z,1.27
2022-11-27T01:35:42.276Z,1.12
2022-11-27T01:36:42.257Z,1.16
2022-11-27T01:37:42.233Z,1.18
2022-11-27T01:38:42.213Z,1.18
2022-11-27T01:39:42.192Z,1.21
2022-11-27T01:40:42.171Z,1.20
2022-11-27T01:41:42.147Z,1.16
2022-11-27T01:42:42.124Z,1.09
2022-11-27T01:43:42.109Z,1.10
2022-11-27T01:44:42.345Z,1.10
2022-11-27T01:45:42.060Z,1.06
2022-11-27T01:46:42.068Z,1.02
2022-11-27T01:47:42.013Z,0.95
2022-11-27T01:48:41.994Z,1.03
2022-11-27T01:49:41.970Z,0.99
2022-11-27T01:50:41.952Z,1.03
2022-11-27T01:51:41.928Z,1.00
2022-11-27T01:52:41.910Z,1.04
2022-11-27T01:53:41.883Z,1.00
2022-11-27T01:54:42.197Z,0.89
2022-11-27T01:55:41.839Z,0.99
2022-11-27T01:56:41.823Z,1.00
2022-11-27T01:57:41.796Z,0.94
2022-11-27T01:58:41.777Z,0.91
2022-11-27T01:59:41.751Z,0.89
2022-11-27T02:00:41.729Z,0.91
2022-11-27T02:01:41.772Z,0.92
2022-11-27T02:02:41.780Z,0.91
2022-11-27T02:03:41.665Z,1.03
2022-11-27T02:04:41.980Z,0.88
2022-11-27T02:05:41.619Z,0.88
2022-11-27T02:06:41.599Z,0.82
2022-11-27T02:07:41.666Z,0.85
2022-11-27T02:08:41.560Z,0.86
2022-11-27T02:09:41.535Z,0.88
2022-11-27T02:10:41.511Z,0.85
2022-11-27T02:11:41.491Z,0.86
2022-11-27T02:12:41.470Z,0.85
2022-11-27T02:13:41.447Z,0.82
2022-11-27T02:14:41.723Z,0.84
2022-11-27T02:15:41.453Z,0.94
2022-11-27T02:16:41.558Z,0.86
2022-11-27T02:17:41.354Z,0.86
2022-11-27T02:18:41.336Z,0.86
2022-11-27T02:19:41.310Z,0.88
2022-11-27T02:20:41.351Z,0.84
2022-11-27T02:21:41.265Z,0.81
2022-11-27T02:22:41.246Z,0.81
2022-11-27T02:23:41.221Z,0.74
2022-11-27T02:24:41.529Z,0.77
2022-11-27T02:25:41.178Z,0.76
2022-11-27T02:26:41.155Z,0.71
2022-11-27T02:27:41.135Z,0.71
2022-11-27T02:28:41.112Z,0.68
2022-11-27T02:29:41.089Z,0.66
2022-11-27T02:30:41.069Z,0.64
2022-11-27T02:31:41.087Z,0.61
2022-11-27T02:32:41.023Z,0.63
2022-11-27T02:33:41.001Z,0.64
2022-11-27T02:34:41.209Z,0.56
2022-11-27T02:35:40.956Z,0.56
2022-11-27T02:36:40.934Z,0.55
2022-11-27T02:37:40.911Z,0.58
2022-11-27T02:38:40.892Z,0.55
2022-11-27T02:39:40.868Z,0.55
2022-11-27T02:40:40.847Z,0.64
2022-11-27T02:41:40.824Z,0.64
2022-11-27T02:42:40.906Z,0.51
2022-11-27T02:43:40.781Z,0.48
2022-11-27T02:44:41.031Z,0.51
2022-11-27T02:45:40.735Z,0.59
2022-11-27T02:46:40.759Z,0.49
2022-11-27T02:47:40.688Z,0.47
2022-11-27T02:48:40.665Z,0.55
2022-11-27T02:49:40.645Z,0.55
2022-11-27T02:50:40.624Z,0.58
2022-11-27T02:51:40.603Z,0.55
2022-11-27T02:52:40.581Z,0.58
2022-11-27T02:53:40.557Z,0.63
2022-11-27T02:54:40.720Z,0.56
2022-11-27T02:55:40.511Z,0.59
2022-11-27T02:56:40.488Z,0.52
2022-11-27T02:57:40.470Z,0.64
2022-11-27T02:58:40.546Z,0.51
2022-11-27T02:59:40.421Z,0.48
2022-11-27T03:00:40.415Z,0.52
2022-11-27T03:01:40.464Z,0.51
2022-11-27T03:02:40.415Z,0.44
2022-11-27T03:03:40.333Z,0.45
2022-11-27T03:04:40.715Z,0.55
2022-11-27T03:05:40.289Z,0.47
2022-11-27T03:06:40.271Z,0.49
2022-11-27T03:07:40.332Z,0.64
2022-11-27T03:08:40.220Z,0.56
2022-11-27T03:09:40.195Z,0.59
2022-11-27T03:10:40.177Z,0.47
2022-11-27T03:11:40.161Z,0.52
2022-11-27T03:12:40.133Z,0.52
2022-11-27T03:13:40.113Z,0.52
2022-11-27T03:14:40.627Z,0.59
2022-11-27T03:15:40.102Z,0.51
2022-11-27T03:16:40.044Z,0.48
2022-11-27T03:17:40.019Z,0.49
2022-11-27T03:18:39.997Z,0.48
2022-11-27T03:19:39.975Z,0.49
2022-11-27T03:20:39.955Z,0.51
2022-11-27T03:21:39.930Z,0.44
2022-11-27T03:22:39.910Z,0.36
2022-11-27T03:23:39.885Z,0.48
2022-11-27T03:24:40.102Z,0.44
2022-11-27T03:25:39.842Z,0.45
2022-11-27T03:26:39.821Z,0.31
2022-11-27T03:27:39.796Z,0.39
2022-11-27T03:28:39.775Z,0.45
2022-11-27T03:29:39.756Z,0.33
2022-11-27T03:30:39.826Z,0.30
2022-11-27T03:31:39.749Z,0.37
2022-11-27T03:32:39.686Z,0.34
2022-11-27T03:33:39.661Z,0.20
2022-11-27T03:34:40.022Z,0.26
2022-11-27T03:35:39.618Z,0.30
2022-11-27T03:36:39.598Z,0.23
2022-11-27T03:37:39.573Z,0.27
2022-11-27T03:38:39.554Z,0.23
2022-11-27T03:39:39.528Z,0.26
2022-11-27T03:40:39.508Z,0.15
2022-11-27T03:41:39.490Z,0.09
2022-11-27T03:42:40.342Z,0.13
2022-11-27T03:43:39.440Z,0.16
2022-11-27T03:44:39.748Z,0.13
2022-11-27T03:45:39.393Z,0.11
2022-11-27T03:46:39.554Z,0.13
2022-11-27T03:47:39.389Z,0.15
2022-11-27T03:48:39.329Z,0.11
2022-11-27T03:49:39.304Z,0.15
2022-11-27T03:50:39.283Z,0.11
2022-11-27T03:51:39.263Z,0.09
2022-11-27T03:52:39.238Z,0.05
2022-11-27T03:53:39.215Z,0.05
2022-11-27T03:54:39.457Z,0.01
2022-11-27T03:55:39.170Z,0.00
2022-11-27T03:56:39.147Z,0.06
2022-11-27T03:57:39.123Z,-0.02
2022-11-27T03:58:39.103Z,0.09
2022-11-27T03:59:39.083Z,0.01
2022-11-27T04:00:39.058Z,0.01
2022-11-27T04:01:39.121Z,0.06
2022-11-27T04:02:44.937Z,0.02
2022-11-27T04:03:39.165Z,0.00
2022-11-27T04:04:39.163Z,-0.07
2022-11-27T04:05:38.944Z,0.02
2022-11-27T04:06:38.925Z,-0.09
2022-11-27T04:07:38.999Z,-0.09
2022-11-27T04:08:38.886Z,-0.02
2022-11-27T04:09:38.865Z,-0.06
2022-11-27T04:10:38.832Z,-0.06
2022-11-27T04:11:38.812Z,-0.02
2022-11-27T04:12:38.787Z,-0.09
2022-11-27T04:13:38.764Z,-0.03
2022-11-27T04:14:39.185Z,-0.06
2022-11-27T04:15:38.719Z,-0.09
2022-11-27T04:16:38.740Z,-0.07
2022-11-27T04:17:38.673Z,-0.06
2022-11-27T04:18:38.652Z,-0.10
2022-11-27T04:19:38.721Z,-0.02
2022-11-27T04:20:38.605Z,-0.07
2022-11-27T04:21:38.582Z,-0.09
2022-11-27T04:22:38.564Z,-0.12
2022-11-27T04:23:38.580Z,-0.12
2022-11-27T04:24:38.783Z,-0.06
2022-11-27T04:25:38.493Z,-0.15
2022-11-27T04:26:38.469Z,-0.12
2022-11-27T04:27:38.453Z,-0.17
2022-11-27T04:28:38.423Z,-0.12
2022-11-27T04:29:38.404Z,-0.09
2022-11-27T04:30:38.381Z,-0.12
2022-11-27T04:31:38.389Z,-0.15
2022-11-27T04:32:38.332Z,-0.26
2022-11-27T04:33:38.312Z,-0.18
2022-11-27T04:34:38.564Z,-0.20
2022-11-27T04:35:38.363Z,-0.21
2022-11-27T04:36:39.683Z,-0.24
2022-11-27T04:37:38.227Z,-0.23
2022-11-27T04:38:38.196Z,-0.24
2022-11-27T04:39:38.176Z,-0.15
2022-11-27T04:40:38.152Z,-0.15
2022-11-27T04:41:38.129Z,-0.10
2022-11-27T04:42:38.112Z,-0.10
2022-11-27T04:43:38.082Z,-0.15
2022-11-27T04:44:38.416Z,-0.03
2022-11-27T04:45:38.039Z,-0.06
2022-11-27T04:46:38.054Z,-0.13
2022-11-27T04:47:37.992Z,-0.09
2022-11-27T04:48:37.968Z,0.06
2022-11-27T04:49:37.950Z,0.06
2022-11-27T04:50:37.929Z,0.19
2022-11-27T04:51:43.882Z,0.13
2022-11-27T04:52:37.976Z,0.09
2022-11-27T04:53:37.859Z,0.16
2022-11-27T04:54:38.124Z,0.24
2022-11-27T04:55:37.813Z,0.18
2022-11-27T04:56:37.791Z,0.29
2022-11-27T04:57:37.770Z,0.30
2022-11-27T04:58:37.745Z,0.34
2022-11-27T04:59:37.726Z,0.30
2022-11-27T05:00:37.751Z,0.37
2022-11-27T05:01:37.677Z,0.31
2022-11-27T05:02:37.734Z,0.24
2022-11-27T05:03:37.633Z,0.27
2022-11-27T05:04:37.835Z,0.27
2022-11-27T05:05:37.588Z,0.29
2022-11-27T05:06:37.566Z,0.34
2022-11-27T05:07:37.599Z,0.33
2022-11-27T05:08:37.612Z,0.36
2022-11-27T05:09:37.495Z,0.31
2022-11-27T05:10:37.476Z,0.34
2022-11-27T05:11:37.457Z,0.29
2022-11-27T05:12:37.435Z,0.33
2022-11-27T05:13:37.407Z,0.36
2022-11-27T05:14:37.664Z,0.29
2022-11-27T05:15:37.363Z,0.24
2022-11-27T05:16:37.430Z,0.24
2022-11-27T05:17:37.320Z,0.29
2022-11-27T05:18:37.292Z,0.26
2022-11-27T05:19:37.280Z,0.24
2022-11-27T05:20:37.277Z,0.20
2022-11-27T05:21:37.245Z,0.24
2022-11-27T05:22:37.204Z,0.19
2022-11-27T05:23:37.183Z,0.11
2022-11-27T05:24:37.359Z,0.06
2022-11-27T05:25:37.138Z,0.08
2022-11-27T05:26:37.116Z,0.18
2022-11-27T05:27:37.094Z,0.11
2022-11-27T05:28:37.072Z,0.13
2022-11-27T05:29:37.047Z,0.06
2022-11-27T05:30:37.025Z,0.09
2022-11-27T05:31:37.045Z,0.06
2022-11-27T05:32:36.979Z,0.00
2022-11-27T05:33:36.957Z,0.02
2022-11-27T05:34:36.943Z,0.05
2022-11-27T05:35:36.915Z,0.08
2022-11-27T05:36:36.887Z,0.08
2022-11-27T05:37:36.904Z,0.05
2022-11-27T05:38:36.843Z,0.11
2022-11-27T05:39:36.832Z,0.06
2022-11-27T05:40:36.893Z,0.12
2022-11-27T05:41:36.782Z,0.12
2022-11-27T05:42:36.753Z,0.13
2022-11-27T05:43:36.730Z,0.15
2022-11-27T05:44:36.711Z,0.08
2022-11-27T05:45:36.694Z,0.15
2022-11-27T05:46:36.751Z,0.19
2022-11-27T05:47:36.642Z,0.13
2022-11-27T05:48:36.619Z,0.13
2022-11-27T05:49:36.597Z,0.11
2022-11-27T05:50:36.585Z,0.23
2022-11-27T05:51:36.550Z,0.15
2022-11-27T05:52:36.533Z,0.11
2022-11-27T05:53:36.508Z,0.19
2022-11-27T05:54:36.484Z,0.09
2022-11-27T05:55:36.462Z,0.15
2022-11-27T05:56:36.531Z,0.15
2022-11-27T05:57:36.421Z,0.16
2022-11-27T05:58:36.398Z,0.26
2022-11-27T05:59:36.374Z,0.13
2022-11-27T06:00:36.348Z,0.16
2022-11-27T06:01:36.346Z,0.15
2022-11-27T06:02:36.401Z,0.16
2022-11-27T06:03:36.337Z,0.13
2022-11-27T06:04:36.254Z,0.15
2022-11-27T06:05:36.234Z,0.12
2022-11-27T06:06:36.210Z,0.12
2022-11-27T06:07:36.238Z,0.23
2022-11-27T06:08:36.164Z,0.12
2022-11-27T06:09:36.144Z,0.18
2022-11-27T06:10:36.120Z,0.13
2022-11-27T06:11:36.099Z,0.16
2022-11-27T06:12:36.169Z,0.15
2022-11-27T06:13:36.055Z,0.16
2022-11-27T06:14:36.031Z,0.24
2022-11-27T06:15:36.029Z,0.19
2022-11-27T06:16:36.054Z,0.39
2022-11-27T06:17:35.968Z,0.36
2022-11-27T06:18:35.941Z,0.40
2022-11-27T06:19:35.923Z,0.36
2022-11-27T06:20:39.536Z,0.56
2022-11-27T06:21:35.872Z,0.58
2022-11-27T06:22:35.852Z,0.49
2022-11-27T06:23:35.828Z,0.51
2022-11-27T06:24:35.807Z,0.56
2022-11-27T06:25:35.782Z,0.56
2022-11-27T06:26:35.757Z,0.66
2022-11-27T06:27:35.736Z,0.61
2022-11-27T06:28:35.812Z,0.67
2022-11-27T06:29:35.691Z,0.63
2022-11-27T06:30:35.671Z,0.64
2022-11-27T06:31:35.659Z,0.73
2022-11-27T06:32:35.634Z,0.84
2022-11-27T06:33:35.604Z,0.85
2022-11-27T06:34:35.580Z,0.89
2022-11-27T06:35:35.558Z,0.81
2022-11-27T06:36:35.536Z,0.89
2022-11-27T06:37:35.519Z,0.86
2022-11-27T06:38:35.492Z,0.88
2022-11-27T06:39:35.470Z,1.02
2022-11-27T06:40:35.444Z,1.00
2022-11-27T06:41:35.421Z,1.13
2022-11-27T06:42:35.400Z,1.09
2022-11-27T06:43:43.147Z,1.16
2022-11-27T06:45:39.628Z,1.25
2022-11-27T06:46:39.500Z,1.32
2022-11-27T06:48:43.921Z,1.34
2022-11-27T06:49:43.893Z,1.34
2022-11-27T06:51:48.305Z,1.36
2022-11-27T06:52:48.273Z,1.38
2022-11-27T06:54:41.847Z,1.40
2022-11-27T06:55:41.606Z,1.34
2022-11-27T06:57:59.390Z,1.49
2022-11-27T06:58:59.458Z,1.48
2022-11-27T07:01:03.846Z,1.50
2022-11-27T07:02:03.846Z,1.46
2022-11-27T07:03:58.141Z,1.57
2022-11-27T07:04:58.101Z,1.56
2022-11-27T07:05:58.076Z,1.50
2022-11-27T07:06:58.059Z,1.46
2022-11-27T07:07:58.090Z,1.43
2022-11-27T07:08:58.012Z,1.53
2022-11-27T07:09:57.988Z,1.57
2022-11-27T07:10:57.968Z,1.57
2022-11-27T07:11:57.942Z,1.52
2022-11-27T07:12:57.923Z,1.60
2022-11-27T07:13:57.901Z,1.56
2022-11-27T07:15:02.886Z,1.56
2022-11-27T07:15:57.945Z,1.56
2022-11-27T07:16:57.905Z,1.49
2022-11-27T07:17:57.818Z,1.52
2022-11-27T07:18:57.793Z,1.53
2022-11-27T07:19:57.768Z,1.60
2022-11-27T07:20:57.747Z,1.56
2022-11-27T07:21:57.724Z,1.56
2022-11-27T07:22:57.703Z,1.58
2022-11-27T07:23:57.683Z,1.56
2022-11-27T07:24:57.661Z,1.61
2022-11-27T07:25:57.641Z,1.60
2022-11-27T07:26:57.673Z,1.58
2022-11-27T07:27:57.605Z,1.63
2022-11-27T07:28:57.573Z,1.64
2022-11-27T07:29:57.553Z,1.66
2022-11-27T07:30:57.637Z,1.63
2022-11-27T07:31:57.528Z,1.61
2022-11-27T07:32:57.484Z,1.60
2022-11-27T07:33:57.481Z,1.67
2022-11-27T07:34:57.441Z,1.67
2022-11-27T07:35:57.416Z,1.63
2022-11-27T07:36:57.396Z,1.68
2022-11-27T07:37:57.375Z,1.56
2022-11-27T07:38:57.352Z,1.56
2022-11-27T07:40:03.909Z,1.53
2022-11-27T07:40:57.308Z,1.60
2022-11-27T07:42:00.031Z,1.60
2022-11-27T07:42:57.264Z,1.56
2022-11-27T07:43:57.240Z,1.43
2022-11-27T07:44:57.223Z,1.49
2022-11-27T07:45:57.266Z,1.50
2022-11-27T07:46:57.271Z,1.46
2022-11-27T07:47:57.153Z,1.49
2022-11-27T07:48:57.134Z,1.43
2022-11-27T07:49:57.112Z,1.48
2022-11-27T07:50:57.111Z,1.57
2022-11-27T07:51:57.069Z,1.52
2022-11-27T07:52:57.046Z,1.48
2022-11-27T07:53:57.021Z,1.52
2022-11-27T07:54:57.018Z,1.52
2022-11-27T07:55:56.978Z,1.60
2022-11-27T07:56:56.961Z,1.53
2022-11-27T07:57:56.940Z,1.60
2022-11-27T07:58:56.914Z,1.53
2022-11-27T07:59:56.899Z,1.52
2022-11-27T08:00:56.913Z,1.58
2022-11-27T08:01:56.847Z,1.64
2022-11-27T08:02:56.922Z,1.58
2022-11-27T08:03:56.804Z,1.61
2022-11-27T08:04:56.834Z,1.78
2022-11-27T08:05:56.760Z,1.78
2022-11-27T08:06:56.850Z,1.86
2022-11-27T08:07:56.775Z,2.04
2022-11-27T08:08:56.755Z,2.14
2022-11-27T08:09:56.673Z,2.23
2022-11-27T08:10:56.658Z,2.25
2022-11-27T08:11:56.630Z,2.43
2022-11-27T08:12:56.611Z,2.37
2022-11-27T08:13:56.588Z,2.58
2022-11-27T08:14:56.565Z,2.65
2022-11-27T08:15:56.576Z,2.76
2022-11-27T08:16:56.629Z,2.88
2022-11-27T08:17:56.498Z,3.03
2022-11-27T08:18:56.579Z,3.11
2022-11-27T08:19:56.455Z,3.24
2022-11-27T08:20:56.436Z,3.24
2022-11-27T08:21:56.419Z,3.36
2022-11-27T08:23:02.325Z,3.58
2022-11-27T08:23:56.375Z,3.74
2022-11-27T08:24:56.354Z,3.74
2022-11-27T08:25:56.330Z,3.89
2022-11-27T08:26:56.309Z,4.09
2022-11-27T08:27:56.287Z,4.13
2022-11-27T08:28:56.280Z,4.30
2022-11-27T08:29:56.246Z,4.34
2022-11-27T08:30:56.228Z,4.56
2022-11-27T08:31:56.243Z,4.60
2022-11-27T08:32:56.186Z,4.68
2022-11-27T08:33:56.163Z,4.82
2022-11-27T08:34:56.243Z,4.86
2022-11-27T08:35:56.121Z,4.87
2022-11-27T08:36:56.102Z,5.02
2022-11-27T08:37:56.081Z,5.15
2022-11-27T08:38:56.061Z,5.23
2022-11-27T08:39:56.042Z,5.34
2022-11-27T08:40:56.023Z,5.38
2022-11-27T08:41:56.001Z,5.58
2022-11-27T08:42:55.980Z,5.74
2022-11-27T08:43:55.961Z,5.88
2022-11-27T08:44:55.941Z,5.94
2022-11-27T08:45:55.989Z,6.07
2022-11-27T08:46:55.898Z,6.25
2022-11-27T08:47:55.878Z,6.29
2022-11-27T08:48:55.860Z,6.36
2022-11-27T08:49:55.840Z,6.39
2022-11-27T08:50:55.915Z,6.39
2022-11-27T08:51:55.801Z,6.41
2022-11-27T08:52:55.780Z,6.39
2022-11-27T08:53:55.763Z,6.28
2022-11-27T08:54:57.819Z,6.34
2022-11-27T08:55:55.721Z,6.32
2022-11-27T08:56:55.705Z,6.28
2022-11-27T08:57:55.683Z,6.25
2022-11-27T08:58:55.666Z,6.36
2022-11-27T08:59:55.661Z,6.39
2022-11-27T09:00:55.722Z,6.57
2022-11-27T09:01:55.606Z,6.70
2022-11-27T09:02:55.589Z,6.89
2022-11-27T09:03:55.609Z,6.90
2022-11-27T09:04:55.553Z,6.97
2022-11-27T09:05:55.531Z,6.93
2022-11-27T09:06:58.677Z,7.01
2022-11-27T09:07:55.524Z,7.01
2022-11-27T09:08:55.477Z,7.03
2022-11-27T09:09:55.454Z,6.96
2022-11-27T09:10:55.437Z,7.00
2022-11-27T09:11:55.416Z,6.89
2022-11-27T09:12:55.398Z,6.92
2022-11-27T09:13:55.377Z,6.87
2022-11-27T09:14:55.359Z,6.90
2022-11-27T09:15:55.340Z,6.82
2022-11-27T09:16:55.363Z,6.86
2022-11-27T09:17:55.304Z,6.85
2022-11-27T09:18:55.282Z,7.04
2022-11-27T09:19:55.266Z,7.18
2022-11-27T09:20:55.249Z,7.26
2022-11-27T09:21:55.227Z,7.48
2022-11-27T09:22:55.304Z,7.78
2022-11-27T09:23:55.198Z,8.11
2022-11-27T09:24:55.174Z,8.27
2022-11-27T09:25:55.157Z,8.44
2022-11-27T09:26:55.138Z,8.57
2022-11-27T09:27:55.117Z,8.75
2022-11-27T09:28:55.098Z,8.69
2022-11-27T09:29:55.078Z,8.81
2022-11-27T09:30:55.065Z,8.93
2022-11-27T09:31:55.082Z,9.05
2022-11-27T09:32:55.025Z,9.12
2022-11-27T09:33:55.006Z,9.15
2022-11-27T09:34:55.059Z,9.24
2022-11-27T09:35:54.971Z,9.30
2022-11-27T09:36:54.952Z,9.34
2022-11-27T09:37:54.936Z,9.33
2022-11-27T09:39:00.832Z,9.54
2022-11-27T09:39:54.993Z,9.64
2022-11-27T09:40:57.082Z,9.72
2022-11-27T09:41:54.863Z,9.74
2022-11-27T09:42:54.847Z,9.84
2022-11-27T09:43:54.831Z,9.87
2022-11-27T09:44:54.813Z,9.97
2022-11-27T09:45:54.887Z,9.97
2022-11-27T09:46:54.776Z,9.92
2022-11-27T09:47:54.755Z,9.88
2022-11-27T09:48:54.743Z,9.85
2022-11-27T09:49:54.728Z,9.84
2022-11-27T09:50:54.707Z,9.77
2022-11-27T09:51:54.705Z,9.80
2022-11-27T09:52:54.672Z,9.82
2022-11-27T09:53:54.654Z,9.69
2022-11-27T09:54:54.650Z,9.76
2022-11-27T09:55:54.717Z,9.80
2022-11-27T09:56:54.626Z,9.82
2022-11-27T09:57:54.587Z,9.90
2022-11-27T09:58:54.571Z,10.02
2022-11-27T09:59:54.554Z,10.06
2022-11-27T10:00:54.537Z,10.15
2022-11-27T10:01:54.603Z,10.33
2022-11-27T10:02:54.594Z,10.48
2022-11-27T10:03:54.483Z,10.68
2022-11-27T10:05:18.253Z,10.90
2022-11-27T10:05:54.452Z,11.25
2022-11-27T10:06:54.433Z,11.48
2022-11-27T10:07:54.453Z,11.74
2022-11-27T10:08:54.404Z,11.89
2022-11-27T10:09:54.384Z,11.96
2022-11-27T10:10:54.366Z,11.99
2022-11-27T10:11:54.444Z,11.99
2022-11-27T10:12:54.336Z,11.95
2022-11-27T10:13:54.333Z,11.93
2022-11-27T10:14:54.302Z,11.86
2022-11-27T10:15:54.290Z,11.95
2022-11-27T10:16:54.308Z,12.00
2022-11-27T10:17:54.253Z,12.12
2022-11-27T10:18:54.238Z,12.21
2022-11-27T10:19:54.219Z,12.40
2022-11-27T10:20:54.205Z,12.51
2022-11-27T10:21:54.213Z,12.58
2022-11-27T10:22:54.171Z,12.63
2022-11-27T10:23:54.158Z,12.66
2022-11-27T10:24:54.140Z,12.66
2022-11-27T10:25:54.123Z,12.68
2022-11-27T10:26:54.111Z,12.63
2022-11-27T10:27:54.193Z,12.61
2022-11-27T10:28:54.076Z,12.53
2022-11-27T10:29:54.061Z,12.48
2022-11-27T10:30:54.043Z,12.39
2022-11-27T10:31:54.105Z,12.32
2022-11-27T10:32:55.694Z,12.20
2022-11-27T10:33:54.000Z,12.08
2022-11-27T10:34:53.980Z,11.91
2022-11-27T10:35:53.966Z,11.70
2022-11-27T10:36:53.946Z,11.65
2022-11-27T10:37:53.946Z,11.38
2022-11-27T10:38:53.916Z,11.31
2022-11-27T10:39:53.914Z,11.19
2022-11-27T10:40:53.883Z,11.01
2022-11-27T10:41:53.865Z,10.75
2022-11-27T10:42:53.852Z,10.67
2022-11-27T10:43:53.949Z,10.65
2022-11-27T10:44:53.815Z,10.59
2022-11-27T10:45:53.851Z,10.55
2022-11-27T10:46:53.787Z,10.72
2022-11-27T10:47:53.768Z,10.92
2022-11-27T10:48:53.778Z,11.22
2022-11-27T10:49:53.737Z,11.37
2022-11-27T10:50:53.736Z,11.56
2022-11-27T10:51:53.706Z,11.73
2022-11-27T10:52:53.684Z,11.89
2022-11-27T10:53:53.675Z,11.86
2022-11-27T10:54:53.656Z,11.77
2022-11-27T10:55:53.658Z,11.77
2022-11-27T10:56:53.621Z,11.74
2022-11-27T10:57:53.623Z,11.77
2022-11-27T10:58:53.586Z,11.74
2022-11-27T10:59:53.678Z,11.60
2022-11-27T11:00:53.613Z,11.53
2022-11-27T11:01:53.648Z,11.51
2022-11-27T11:02:53.555Z,11.56
2022-11-27T11:03:53.507Z,11.56
2022-11-27T11:05:16.124Z,11.49
2022-11-27T11:06:18.537Z,11.59
2022-11-27T11:06:53.461Z,11.63
2022-11-27T11:07:53.538Z,11.60
2022-11-27T11:08:57.168Z,11.73
2022-11-27T11:09:53.409Z,11.77
2022-11-27T11:10:53.394Z,11.89
2022-11-27T11:11:53.380Z,11.97
2022-11-27T11:12:53.361Z,12.12
2022-11-27T11:13:53.344Z,12.23
2022-11-27T11:14:53.330Z,12.48
2022-11-27T11:15:53.464Z,12.57
2022-11-27T11:16:53.393Z,12.75
2022-11-27T11:17:53.282Z,13.03
2022-11-27T11:18:53.286Z,13.43
2022-11-27T11:19:53.253Z,13.57
2022-11-27T11:20:53.233Z,13.89
2022-11-27T11:21:53.234Z,14.08
2022-11-27T11:22:53.205Z,14.22
2022-11-27T11:23:53.187Z,14.56
2022-11-27T11:24:53.196Z,14.78
2022-11-27T11:25:53.156Z,14.96
2022-11-27T11:26:53.144Z,15.02
2022-11-27T11:27:53.127Z,15.02
2022-11-27T11:28:53.111Z,15.02
2022-11-27T11:29:53.098Z,15.22
2022-11-27T11:30:53.085Z,15.26
2022-11-27T11:31:53.207Z,15.39
2022-11-27T11:32:53.055Z,15.35
2022-11-27T11:33:53.060Z,15.32
2022-11-27T11:34:57.648Z,15.27
2022-11-27T11:35:53.024Z,15.11
2022-11-27T11:36:52.994Z,15.05
2022-11-27T11:37:52.981Z,15.04
2022-11-27T11:38:52.964Z,14.78
2022-11-27T11:39:52.963Z,14.73
2022-11-27T11:40:52.945Z,14.58
2022-11-27T11:41:52.925Z,14.44
2022-11-27T11:42:52.907Z,14.38
2022-11-27T11:43:52.893Z,14.33
2022-11-27T11:44:52.874Z,14.20
2022-11-27T11:45:52.880Z,14.18
2022-11-27T11:46:52.849Z,14.30
2022-11-27T11:47:52.928Z,14.51
2022-11-27T11:48:52.819Z,14.85
2022-11-27T11:49:52.811Z,15.11
2022-11-27T11:50:52.791Z,15.35
2022-11-27T11:51:52.777Z,15.57
2022-11-27T11:52:52.762Z,15.88
2022-11-27T11:53:52.747Z,16.12
2022-11-27T11:54:52.746Z,16.41
2022-11-27T11:55:52.720Z,16.62
2022-11-27T11:56:52.708Z,16.98
2022-11-27T11:57:52.690Z,17.10
2022-11-27T11:58:52.675Z,17.09
2022-11-27T11:59:52.661Z,17.07
2022-11-27T12:01:19.256Z,17.07
2022-11-27T12:01:52.653Z,16.87
2022-11-27T12:02:52.622Z,16.50
2022-11-27T12:03:52.727Z,16.34
2022-11-27T12:04:52.671Z,16.08
2022-11-27T12:05:52.578Z,15.96
2022-11-27T12:06:52.569Z,15.63
2022-11-27T12:07:52.828Z,15.15
2022-11-27T12:08:52.536Z,15.00
2022-11-27T12:09:52.539Z,14.70
2022-11-27T12:10:52.513Z,14.44
2022-11-27T12:11:52.496Z,14.08
2022-11-27T12:12:52.483Z,13.98
2022-11-27T12:13:52.468Z,13.85
2022-11-27T12:14:52.473Z,13.78
2022-11-27T12:15:52.442Z,13.75
2022-11-27T12:16:52.487Z,13.80
2022-11-27T12:17:52.440Z,13.95
2022-11-27T12:18:52.395Z,14.01
2022-11-27T12:19:52.482Z,14.13
2022-11-27T12:20:52.369Z,14.26
2022-11-27T12:21:52.370Z,14.28
2022-11-27T12:22:52.341Z,14.33
2022-11-27T12:23:52.322Z,14.28
2022-11-27T12:24:52.306Z,14.30
2022-11-27T12:25:52.299Z,14.22
2022-11-27T12:26:52.281Z,14.22
2022-11-27T12:27:52.265Z,14.13
2022-11-27T12:28:58.825Z,14.01
2022-11-27T12:29:52.237Z,13.97
2022-11-27T12:30:53.196Z,13.86
2022-11-27T12:31:52.362Z,13.71
2022-11-27T12:32:52.192Z,13.61
2022-11-27T12:33:52.180Z,13.52
2022-11-27T12:34:52.160Z,13.45
2022-11-27T12:35:52.323Z,13.33
2022-11-27T12:36:52.134Z,13.27
2022-11-27T12:37:52.116Z,13.20
2022-11-27T12:38:52.100Z,13.20
2022-11-27T12:39:52.087Z,13.05
2022-11-27T12:40:52.081Z,12.93
2022-11-27T12:41:52.055Z,12.86
2022-11-27T12:42:52.059Z,12.84
2022-11-27T12:43:52.025Z,12.70
2022-11-27T12:44:52.012Z,12.63
2022-11-27T12:45:52.062Z,12.61
2022-11-27T12:46:51.979Z,12.48
2022-11-27T12:47:51.976Z,12.32
2022-11-27T12:48:51.946Z,12.26
2022-11-27T12:49:59.138Z,12.17
2022-11-27T12:51:57.026Z,12.02
2022-11-27T12:52:56.893Z,12.00
2022-11-27T12:55:00.861Z,12.03
2022-11-27T12:56:00.828Z,11.99
2022-11-27T12:57:00.813Z,11.95
2022-11-27T12:58:00.798Z,11.86
2022-11-27T12:59:00.781Z,11.96
2022-11-27T13:00:00.782Z,11.74
2022-11-27T13:01:00.831Z,11.73
2022-11-27T13:02:00.812Z,11.60
2022-11-27T13:03:00.790Z,11.49
2022-11-27T13:04:00.701Z,11.48
2022-11-27T13:05:00.687Z,11.38
2022-11-27T13:06:00.668Z,11.18
2022-11-27T13:07:00.748Z,11.08
2022-11-27T13:08:00.787Z,10.95
2022-11-27T13:09:00.622Z,10.92
2022-11-27T13:10:00.656Z,10.76
2022-11-27T13:11:00.587Z,10.80
2022-11-27T13:12:00.593Z,10.72
2022-11-27T13:13:00.558Z,10.53
2022-11-27T13:14:00.541Z,10.51
2022-11-27T13:15:00.524Z,10.43
2022-11-27T13:16:00.560Z,10.41
2022-11-27T13:17:00.531Z,10.43
2022-11-27T13:18:00.470Z,10.30
2022-11-27T13:19:00.456Z,10.18
2022-11-27T13:20:00.438Z,10.20
2022-11-27T13:21:00.422Z,10.10
2022-11-27T13:22:00.405Z,10.17
2022-11-27T13:23:00.485Z,10.10
2022-11-27T13:24:00.373Z,10.09
2022-11-27T13:25:00.355Z,10.05
2022-11-27T13:26:00.337Z,10.02
2022-11-27T13:27:00.323Z,10.03
2022-11-27T13:28:00.308Z,9.95
2022-11-27T13:29:00.287Z,9.85
2022-11-27T13:30:00.298Z,9.73
2022-11-27T13:31:00.254Z,9.81
2022-11-27T13:32:00.342Z,9.84
2022-11-27T13:33:00.228Z,9.85
2022-11-27T13:34:00.202Z,9.77
2022-11-27T13:35:00.194Z,9.81
2022-11-27T13:36:00.211Z,9.81
2022-11-27T13:37:00.150Z,9.82
2022-11-27T13:38:00.157Z,9.82
2022-11-27T13:39:00.220Z,9.80
2022-11-27T13:40:00.117Z,9.82
2022-11-27T13:41:00.085Z,9.87